sensor_id;sensor_type;location;lat;lon;timestamp;P1;durP1;ratioP1;P2;durP2;ratioP2
3299;SDS011;1662;49.310;8.134;2023-08-31T00:01:40;7.73;;;4.80;;
3299;SDS011;1662;49.310;8.134;2023-08-31T00:04:06;5.40;;;4.90;;
3299;SDS011;1662;49.310;8.134;2023-08-31T00:06:39;5.83;;;5.23;;
3299;SDS011;1662;49.310;8.134;2023-08-31T00:09:06;5.70;;;5.23;;
3299;SDS011;1662;49.310;8.134;2023-08-31T00:11:34;5.37;;;4.87;;
3299;SDS011;1662;49.310;8.134;2023-08-31T00:14:00;5.60;;;5.10;;
3299;SDS011;1662;49.310;8.134;2023-08-31T00:16:26;8.80;;;6.07;;
3299;SDS011;1662;49.310;8.134;2023-08-31T00:18:52;6.40;;;5.90;;
3299;SDS011;1662;49.310;8.134;2023-08-31T00:21:21;6.30;;;5.20;;
3299;SDS011;1662;49.310;8.134;2023-08-31T00:23:47;6.30;;;5.70;;
3299;SDS011;1662;49.310;8.134;2023-08-31T00:26:13;6.03;;;5.07;;
3299;SDS011;1662;49.310;8.134;2023-08-31T00:28:39;7.73;;;5.30;;
3299;SDS011;1662;49.310;8.134;2023-08-31T00:31:07;8.83;;;5.17;;
3299;SDS011;1662;49.310;8.134;2023-08-31T00:33:33;5.77;;;4.80;;
3299;SDS011;1662;49.310;8.134;2023-08-31T00:36:00;5.97;;;5.37;;
3299;SDS011;1662;49.310;8.134;2023-08-31T00:38:28;4.80;;;4.60;;
3299;SDS011;1662;49.310;8.134;2023-08-31T00:40:54;5.90;;;4.90;;
3299;SDS011;1662;49.310;8.134;2023-08-31T00:43:20;5.70;;;5.20;;
3299;SDS011;1662;49.310;8.134;2023-08-31T00:45:47;5.10;;;4.50;;
3299;SDS011;1662;49.310;8.134;2023-08-31T00:48:17;6.87;;;5.83;;
3299;SDS011;1662;49.310;8.134;2023-08-31T00:50:43;6.77;;;4.97;;
3299;SDS011;1662;49.310;8.134;2023-08-31T00:53:10;5.87;;;5.47;;
3299;SDS011;1662;49.310;8.134;2023-08-31T00:55:37;6.67;;;5.30;;
3299;SDS011;1662;49.310;8.134;2023-08-31T00:58:05;6.90;;;5.70;;
3299;SDS011;1662;49.310;8.134;2023-08-31T01:06:22;5.57;;;5.17;;
3299;SDS011;1662;49.310;8.134;2023-08-31T01:09:39;6.20;;;5.10;;
3299;SDS011;1662;49.310;8.134;2023-08-31T01:14:16;7.53;;;5.70;;
3299;SDS011;1662;49.310;8.134;2023-08-31T01:16:44;5.83;;;5.07;;
3299;SDS011;1662;49.310;8.134;2023-08-31T01:19:30;6.47;;;5.63;;
3299;SDS011;1662;49.310;8.134;2023-08-31T01:22:09;6.53;;;6.00;;
3299;SDS011;1662;49.310;8.134;2023-08-31T01:24:39;5.80;;;5.30;;
3299;SDS011;1662;49.310;8.134;2023-08-31T01:27:06;6.13;;;5.63;;
3299;SDS011;1662;49.310;8.134;2023-08-31T01:29:32;5.40;;;5.00;;
3299;SDS011;1662;49.310;8.134;2023-08-31T01:31:57;6.40;;;5.80;;
3299;SDS011;1662;49.310;8.134;2023-08-31T01:34:23;7.13;;;6.30;;
3299;SDS011;1662;49.310;8.134;2023-08-31T01:36:51;6.00;;;5.57;;
3299;SDS011;1662;49.310;8.134;2023-08-31T01:39:25;5.87;;;5.37;;
3299;SDS011;1662;49.310;8.134;2023-08-31T01:42:12;7.47;;;5.60;;
3299;SDS011;1662;49.310;8.134;2023-08-31T01:44:40;5.57;;;5.17;;
3299;SDS011;1662;49.310;8.134;2023-08-31T01:47:08;5.30;;;4.80;;
3299;SDS011;1662;49.310;8.134;2023-08-31T01:49:36;5.33;;;4.83;;
3299;SDS011;1662;49.310;8.134;2023-08-31T01:52:02;8.23;;;4.70;;
3299;SDS011;1662;49.310;8.134;2023-08-31T01:54:28;6.00;;;5.50;;
3299;SDS011;1662;49.310;8.134;2023-08-31T01:56:53;6.33;;;4.40;;
3299;SDS011;1662;49.310;8.134;2023-08-31T01:59:19;5.90;;;5.07;;
3299;SDS011;1662;49.310;8.134;2023-08-31T02:01:45;7.00;;;4.93;;
3299;SDS011;1662;49.310;8.134;2023-08-31T02:04:10;4.70;;;4.30;;
3299;SDS011;1662;49.310;8.134;2023-08-31T02:06:38;4.87;;;4.37;;
3299;SDS011;1662;49.310;8.134;2023-08-31T02:09:05;5.73;;;3.80;;
3299;SDS011;1662;49.310;8.134;2023-08-31T02:11:31;4.73;;;4.40;;
3299;SDS011;1662;49.310;8.134;2023-08-31T02:14:00;4.50;;;4.10;;
3299;SDS011;1662;49.310;8.134;2023-08-31T02:16:26;4.90;;;4.50;;
3299;SDS011;1662;49.310;8.134;2023-08-31T02:18:52;4.43;;;4.13;;
3299;SDS011;1662;49.310;8.134;2023-08-31T02:21:17;4.60;;;4.30;;
3299;SDS011;1662;49.310;8.134;2023-08-31T02:23:45;4.57;;;4.10;;
3299;SDS011;1662;49.310;8.134;2023-08-31T02:26:11;5.00;;;4.40;;
3299;SDS011;1662;49.310;8.134;2023-08-31T02:28:36;8.60;;;4.47;;
3299;SDS011;1662;49.310;8.134;2023-08-31T02:31:02;6.73;;;4.63;;
3299;SDS011;1662;49.310;8.134;2023-08-31T02:33:30;8.93;;;5.27;;
3299;SDS011;1662;49.310;8.134;2023-08-31T02:35:56;6.90;;;4.90;;
3299;SDS011;1662;49.310;8.134;2023-08-31T02:38:22;5.20;;;3.90;;
3299;SDS011;1662;49.310;8.134;2023-08-31T02:40:48;6.93;;;4.30;;
3299;SDS011;1662;49.310;8.134;2023-08-31T02:43:14;5.80;;;4.37;;
3299;SDS011;1662;49.310;8.134;2023-08-31T02:45:40;4.30;;;3.93;;
3299;SDS011;1662;49.310;8.134;2023-08-31T02:48:06;4.60;;;4.20;;
3299;SDS011;1662;49.310;8.134;2023-08-31T02:50:34;4.87;;;4.37;;
3299;SDS011;1662;49.310;8.134;2023-08-31T02:53:00;4.87;;;4.30;;
3299;SDS011;1662;49.310;8.134;2023-08-31T02:55:25;6.20;;;5.00;;
3299;SDS011;1662;49.310;8.134;2023-08-31T02:57:51;4.67;;;3.50;;
3299;SDS011;1662;49.310;8.134;2023-08-31T03:00:17;5.20;;;4.20;;
3299;SDS011;1662;49.310;8.134;2023-08-31T03:02:47;4.93;;;4.53;;
3299;SDS011;1662;49.310;8.134;2023-08-31T03:05:13;5.20;;;4.00;;
3299;SDS011;1662;49.310;8.134;2023-08-31T03:07:39;3.97;;;3.70;;
3299;SDS011;1662;49.310;8.134;2023-08-31T03:10:04;7.10;;;4.37;;
3299;SDS011;1662;49.310;8.134;2023-08-31T03:12:30;4.30;;;3.70;;
3299;SDS011;1662;49.310;8.134;2023-08-31T03:14:56;4.47;;;4.10;;
3299;SDS011;1662;49.310;8.134;2023-08-31T03:17:22;4.67;;;4.13;;
3299;SDS011;1662;49.310;8.134;2023-08-31T03:19:47;4.63;;;3.90;;
3299;SDS011;1662;49.310;8.134;2023-08-31T03:22:13;5.03;;;4.63;;
3299;SDS011;1662;49.310;8.134;2023-08-31T03:24:39;7.20;;;4.30;;
3299;SDS011;1662;49.310;8.134;2023-08-31T03:27:05;4.93;;;3.70;;
3299;SDS011;1662;49.310;8.134;2023-08-31T03:29:30;4.77;;;4.40;;
3299;SDS011;1662;49.310;8.134;2023-08-31T03:31:57;4.93;;;4.53;;
3299;SDS011;1662;49.310;8.134;2023-08-31T03:34:28;5.10;;;4.60;;
3299;SDS011;1662;49.310;8.134;2023-08-31T03:36:55;4.77;;;4.37;;
3299;SDS011;1662;49.310;8.134;2023-08-31T03:39:21;4.70;;;4.30;;
3299;SDS011;1662;49.310;8.134;2023-08-31T03:41:46;6.10;;;4.47;;
3299;SDS011;1662;49.310;8.134;2023-08-31T03:44:12;5.93;;;4.83;;
3299;SDS011;1662;49.310;8.134;2023-08-31T03:46:37;5.63;;;4.20;;
3299;SDS011;1662;49.310;8.134;2023-08-31T03:49:03;4.27;;;3.97;;
3299;SDS011;1662;49.310;8.134;2023-08-31T03:51:29;10.20;;;5.07;;
3299;SDS011;1662;49.310;8.134;2023-08-31T03:53:54;4.83;;;4.30;;
3299;SDS011;1662;49.310;8.134;2023-08-31T03:56:21;5.70;;;4.00;;
3299;SDS011;1662;49.310;8.134;2023-08-31T03:58:47;7.40;;;3.37;;
3299;SDS011;1662;49.310;8.134;2023-08-31T04:01:13;4.93;;;4.53;;
3299;SDS011;1662;49.310;8.134;2023-08-31T04:03:39;5.67;;;3.90;;
3299;SDS011;1662;49.310;8.134;2023-08-31T04:06:06;4.33;;;3.97;;
3299;SDS011;1662;49.310;8.134;2023-08-31T04:08:32;4.50;;;4.20;;
3299;SDS011;1662;49.310;8.134;2023-08-31T04:10:58;7.50;;;4.83;;
3299;SDS011;1662;49.310;8.134;2023-08-31T04:13:23;4.13;;;3.83;;
3299;SDS011;1662;49.310;8.134;2023-08-31T04:15:49;7.87;;;4.40;;
3299;SDS011;1662;49.310;8.134;2023-08-31T04:18:14;5.53;;;4.30;;
3299;SDS011;1662;49.310;8.134;2023-08-31T04:20:47;5.50;;;5.10;;
3299;SDS011;1662;49.310;8.134;2023-08-31T04:23:14;6.07;;;5.47;;
3299;SDS011;1662;49.310;8.134;2023-08-31T04:25:40;7.83;;;4.53;;
3299;SDS011;1662;49.310;8.134;2023-08-31T04:28:07;5.87;;;4.73;;
3299;SDS011;1662;49.310;8.134;2023-08-31T04:30:32;4.23;;;3.93;;
3299;SDS011;1662;49.310;8.134;2023-08-31T04:32:58;4.83;;;4.40;;
3299;SDS011;1662;49.310;8.134;2023-08-31T04:35:24;6.87;;;4.53;;
3299;SDS011;1662;49.310;8.134;2023-08-31T04:37:49;4.47;;;4.00;;
3299;SDS011;1662;49.310;8.134;2023-08-31T04:40:15;5.03;;;4.63;;
3299;SDS011;1662;49.310;8.134;2023-08-31T04:42:41;4.77;;;4.33;;
3299;SDS011;1662;49.310;8.134;2023-08-31T04:45:07;5.13;;;4.40;;
3299;SDS011;1662;49.310;8.134;2023-08-31T04:47:33;4.93;;;4.00;;
3299;SDS011;1662;49.310;8.134;2023-08-31T04:49:58;6.03;;;4.50;;
3299;SDS011;1662;49.310;8.134;2023-08-31T04:52:24;7.10;;;4.13;;
3299;SDS011;1662;49.310;8.134;2023-08-31T04:54:50;8.20;;;4.90;;
3299;SDS011;1662;49.310;8.134;2023-08-31T04:57:15;5.53;;;4.37;;
3299;SDS011;1662;49.310;8.134;2023-08-31T04:59:41;4.50;;;4.13;;
3299;SDS011;1662;49.310;8.134;2023-08-31T05:02:06;6.93;;;4.87;;
3299;SDS011;1662;49.310;8.134;2023-08-31T05:04:32;6.00;;;4.87;;
3299;SDS011;1662;49.310;8.134;2023-08-31T05:06:57;5.60;;;4.50;;
3299;SDS011;1662;49.310;8.134;2023-08-31T05:09:24;5.07;;;4.20;;
3299;SDS011;1662;49.310;8.134;2023-08-31T05:11:50;6.03;;;4.27;;
3299;SDS011;1662;49.310;8.134;2023-08-31T05:14:15;4.97;;;4.47;;
3299;SDS011;1662;49.310;8.134;2023-08-31T05:16:41;4.23;;;3.93;;
3299;SDS011;1662;49.310;8.134;2023-08-31T05:19:07;4.50;;;4.00;;
3299;SDS011;1662;49.310;8.134;2023-08-31T05:21:35;3.87;;;3.50;;
3299;SDS011;1662;49.310;8.134;2023-08-31T05:24:01;4.83;;;4.20;;
3299;SDS011;1662;49.310;8.134;2023-08-31T05:26:26;4.00;;;3.80;;
3299;SDS011;1662;49.310;8.134;2023-08-31T05:28:52;5.53;;;3.83;;
3299;SDS011;1662;49.310;8.134;2023-08-31T05:31:17;6.93;;;4.17;;
3299;SDS011;1662;49.310;8.134;2023-08-31T05:33:43;4.37;;;3.97;;
3299;SDS011;1662;49.310;8.134;2023-08-31T05:36:09;10.77;;;4.30;;
3299;SDS011;1662;49.310;8.134;2023-08-31T05:38:34;5.33;;;3.93;;
3299;SDS011;1662;49.310;8.134;2023-08-31T05:41:03;4.47;;;3.97;;
3299;SDS011;1662;49.310;8.134;2023-08-31T05:43:33;3.53;;;3.30;;
3299;SDS011;1662;49.310;8.134;2023-08-31T05:45:59;4.77;;;4.30;;
3299;SDS011;1662;49.310;8.134;2023-08-31T05:48:25;3.67;;;3.37;;
3299;SDS011;1662;49.310;8.134;2023-08-31T05:50:50;5.43;;;3.83;;
3299;SDS011;1662;49.310;8.134;2023-08-31T05:53:18;5.50;;;4.13;;
3299;SDS011;1662;49.310;8.134;2023-08-31T05:55:46;4.80;;;4.10;;
3299;SDS011;1662;49.310;8.134;2023-08-31T05:58:12;5.50;;;5.00;;
3299;SDS011;1662;49.310;8.134;2023-08-31T06:00:37;5.33;;;4.70;;
3299;SDS011;1662;49.310;8.134;2023-08-31T06:03:04;4.97;;;4.63;;
3299;SDS011;1662;49.310;8.134;2023-08-31T06:05:30;4.50;;;4.07;;
3299;SDS011;1662;49.310;8.134;2023-08-31T06:07:57;5.20;;;4.03;;
3299;SDS011;1662;49.310;8.134;2023-08-31T06:10:23;5.00;;;4.60;;
3299;SDS011;1662;49.310;8.134;2023-08-31T06:12:49;7.93;;;4.43;;
3299;SDS011;1662;49.310;8.134;2023-08-31T06:15:15;6.30;;;4.10;;
3299;SDS011;1662;49.310;8.134;2023-08-31T06:17:41;13.27;;;4.87;;
3299;SDS011;1662;49.310;8.134;2023-08-31T06:20:07;4.27;;;3.73;;
3299;SDS011;1662;49.310;8.134;2023-08-31T06:22:34;3.50;;;3.30;;
3299;SDS011;1662;49.310;8.134;2023-08-31T06:24:59;4.63;;;3.50;;
3299;SDS011;1662;49.310;8.134;2023-08-31T06:27:30;3.40;;;3.10;;
3299;SDS011;1662;49.310;8.134;2023-08-31T06:29:56;4.00;;;3.60;;
3299;SDS011;1662;49.310;8.134;2023-08-31T06:32:21;4.37;;;3.83;;
3299;SDS011;1662;49.310;8.134;2023-08-31T06:34:48;5.17;;;3.07;;
3299;SDS011;1662;49.310;8.134;2023-08-31T06:37:13;3.40;;;3.10;;
3299;SDS011;1662;49.310;8.134;2023-08-31T06:39:39;3.13;;;2.93;;
3299;SDS011;1662;49.310;8.134;2023-08-31T06:42:06;3.93;;;2.57;;
3299;SDS011;1662;49.310;8.134;2023-08-31T06:44:31;3.00;;;2.80;;
3299;SDS011;1662;49.310;8.134;2023-08-31T06:46:57;3.50;;;3.30;;
3299;SDS011;1662;49.310;8.134;2023-08-31T06:49:25;3.83;;;3.40;;
3299;SDS011;1662;49.310;8.134;2023-08-31T06:51:50;3.23;;;2.90;;
3299;SDS011;1662;49.310;8.134;2023-08-31T06:54:18;8.87;;;3.37;;
3299;SDS011;1662;49.310;8.134;2023-08-31T06:56:44;4.10;;;3.10;;
3299;SDS011;1662;49.310;8.134;2023-08-31T06:59:10;3.60;;;3.33;;
3299;SDS011;1662;49.310;8.134;2023-08-31T07:01:35;3.97;;;3.67;;
3299;SDS011;1662;49.310;8.134;2023-08-31T07:04:01;6.30;;;3.00;;
3299;SDS011;1662;49.310;8.134;2023-08-31T07:06:27;3.27;;;2.97;;
3299;SDS011;1662;49.310;8.134;2023-08-31T07:08:53;10.73;;;8.80;;
3299;SDS011;1662;49.310;8.134;2023-08-31T07:11:23;5.67;;;3.60;;
3299;SDS011;1662;49.310;8.134;2023-08-31T07:13:48;2.87;;;2.77;;
3299;SDS011;1662;49.310;8.134;2023-08-31T07:16:14;3.20;;;3.00;;
3299;SDS011;1662;49.310;8.134;2023-08-31T07:18:42;3.60;;;3.27;;
3299;SDS011;1662;49.310;8.134;2023-08-31T07:21:07;2.73;;;2.53;;
3299;SDS011;1662;49.310;8.134;2023-08-31T07:23:33;2.90;;;2.80;;
3299;SDS011;1662;49.310;8.134;2023-08-31T07:25:59;4.20;;;3.83;;
3299;SDS011;1662;49.310;8.134;2023-08-31T07:28:25;2.77;;;2.57;;
3299;SDS011;1662;49.310;8.134;2023-08-31T07:31:04;2.97;;;2.77;;
3299;SDS011;1662;49.310;8.134;2023-08-31T07:33:32;3.00;;;2.80;;
3299;SDS011;1662;49.310;8.134;2023-08-31T07:35:59;2.80;;;2.70;;
3299;SDS011;1662;49.310;8.134;2023-08-31T07:38:26;4.03;;;3.07;;
3299;SDS011;1662;49.310;8.134;2023-08-31T07:40:52;3.23;;;3.03;;
3299;SDS011;1662;49.310;8.134;2023-08-31T07:43:18;3.43;;;2.80;;
3299;SDS011;1662;49.310;8.134;2023-08-31T07:45:44;6.37;;;2.80;;
3299;SDS011;1662;49.310;8.134;2023-08-31T07:48:09;3.83;;;3.00;;
3299;SDS011;1662;49.310;8.134;2023-08-31T07:50:35;2.70;;;2.60;;
3299;SDS011;1662;49.310;8.134;2023-08-31T07:53:05;5.70;;;5.20;;
3299;SDS011;1662;49.310;8.134;2023-08-31T07:55:30;6.70;;;4.57;;
3299;SDS011;1662;49.310;8.134;2023-08-31T07:57:56;5.83;;;3.57;;
3299;SDS011;1662;49.310;8.134;2023-08-31T08:00:21;3.33;;;2.97;;
3299;SDS011;1662;49.310;8.134;2023-08-31T08:02:47;2.93;;;2.60;;
3299;SDS011;1662;49.310;8.134;2023-08-31T08:05:12;6.57;;;2.67;;
3299;SDS011;1662;49.310;8.134;2023-08-31T08:07:38;5.77;;;4.03;;
3299;SDS011;1662;49.310;8.134;2023-08-31T08:10:06;4.37;;;2.83;;
3299;SDS011;1662;49.310;8.134;2023-08-31T08:12:41;3.40;;;3.10;;
3299;SDS011;1662;49.310;8.134;2023-08-31T08:15:11;3.13;;;3.00;;
3299;SDS011;1662;49.310;8.134;2023-08-31T08:17:38;2.87;;;2.63;;
3299;SDS011;1662;49.310;8.134;2023-08-31T08:20:04;3.20;;;2.60;;
3299;SDS011;1662;49.310;8.134;2023-08-31T08:22:34;3.83;;;2.47;;
3299;SDS011;1662;49.310;8.134;2023-08-31T08:25:01;3.33;;;3.00;;
3299;SDS011;1662;49.310;8.134;2023-08-31T08:27:27;3.53;;;3.30;;
3299;SDS011;1662;49.310;8.134;2023-08-31T08:29:53;3.33;;;2.60;;
3299;SDS011;1662;49.310;8.134;2023-08-31T08:32:18;2.40;;;2.20;;
3299;SDS011;1662;49.310;8.134;2023-08-31T08:34:44;4.50;;;3.20;;
3299;SDS011;1662;49.310;8.134;2023-08-31T08:37:10;2.60;;;2.40;;
3299;SDS011;1662;49.310;8.134;2023-08-31T08:39:37;2.90;;;2.70;;
3299;SDS011;1662;49.310;8.134;2023-08-31T08:42:04;6.90;;;3.43;;
3299;SDS011;1662;49.310;8.134;2023-08-31T08:44:31;2.60;;;2.43;;
3299;SDS011;1662;49.310;8.134;2023-08-31T08:47:00;3.63;;;2.73;;
3299;SDS011;1662;49.310;8.134;2023-08-31T08:49:26;4.53;;;2.50;;
3299;SDS011;1662;49.310;8.134;2023-08-31T08:51:55;2.97;;;2.77;;
3299;SDS011;1662;49.310;8.134;2023-08-31T08:54:22;2.80;;;2.60;;
3299;SDS011;1662;49.310;8.134;2023-08-31T08:56:47;3.07;;;2.77;;
3299;SDS011;1662;49.310;8.134;2023-08-31T08:59:13;2.27;;;2.10;;
3299;SDS011;1662;49.310;8.134;2023-08-31T09:01:39;2.43;;;2.33;;
3299;SDS011;1662;49.310;8.134;2023-08-31T09:04:05;3.00;;;2.80;;
3299;SDS011;1662;49.310;8.134;2023-08-31T09:06:31;3.07;;;2.73;;
3299;SDS011;1662;49.310;8.134;2023-08-31T09:08:57;4.67;;;2.50;;
3299;SDS011;1662;49.310;8.134;2023-08-31T09:11:24;4.03;;;2.53;;
3299;SDS011;1662;49.310;8.134;2023-08-31T09:13:53;3.03;;;2.50;;
3299;SDS011;1662;49.310;8.134;2023-08-31T09:16:28;4.73;;;4.20;;
3299;SDS011;1662;49.310;8.134;2023-08-31T09:18:55;2.97;;;2.80;;
3299;SDS011;1662;49.310;8.134;2023-08-31T09:21:21;3.20;;;3.00;;
3299;SDS011;1662;49.310;8.134;2023-08-31T09:23:58;2.60;;;2.40;;
3299;SDS011;1662;49.310;8.134;2023-08-31T09:26:24;2.90;;;2.80;;
3299;SDS011;1662;49.310;8.134;2023-08-31T09:28:50;2.90;;;2.80;;
3299;SDS011;1662;49.310;8.134;2023-08-31T09:31:16;3.23;;;3.13;;
3299;SDS011;1662;49.310;8.134;2023-08-31T09:33:51;5.47;;;3.23;;
3299;SDS011;1662;49.310;8.134;2023-08-31T09:36:17;7.50;;;5.30;;
3299;SDS011;1662;49.310;8.134;2023-08-31T09:38:44;4.50;;;4.30;;
3299;SDS011;1662;49.310;8.134;2023-08-31T09:41:10;4.07;;;3.87;;
3299;SDS011;1662;49.310;8.134;2023-08-31T09:43:37;4.57;;;4.17;;
3299;SDS011;1662;49.310;8.134;2023-08-31T09:46:03;5.00;;;4.77;;
3299;SDS011;1662;49.310;8.134;2023-08-31T09:48:30;5.00;;;4.80;;
3299;SDS011;1662;49.310;8.134;2023-08-31T09:50:56;5.63;;;5.33;;
3299;SDS011;1662;49.310;8.134;2023-08-31T09:53:25;6.97;;;5.93;;
3299;SDS011;1662;49.310;8.134;2023-08-31T09:55:54;5.30;;;5.00;;
3299;SDS011;1662;49.310;8.134;2023-08-31T09:58:21;7.50;;;6.90;;
3299;SDS011;1662;49.310;8.134;2023-08-31T10:00:52;5.73;;;5.53;;
3299;SDS011;1662;49.310;8.134;2023-08-31T10:03:17;7.20;;;6.80;;
3299;SDS011;1662;49.310;8.134;2023-08-31T10:05:45;7.30;;;6.80;;
3299;SDS011;1662;49.310;8.134;2023-08-31T10:08:12;6.93;;;6.50;;
3299;SDS011;1662;49.310;8.134;2023-08-31T10:10:39;7.20;;;6.90;;
3299;SDS011;1662;49.310;8.134;2023-08-31T10:13:05;8.20;;;7.60;;
3299;SDS011;1662;49.310;8.134;2023-08-31T10:15:37;7.63;;;6.80;;
3299;SDS011;1662;49.310;8.134;2023-08-31T10:18:03;6.70;;;6.40;;
3299;SDS011;1662;49.310;8.134;2023-08-31T10:20:30;6.57;;;6.30;;
3299;SDS011;1662;49.310;8.134;2023-08-31T10:22:58;3.87;;;3.37;;
3299;SDS011;1662;49.310;8.134;2023-08-31T10:25:24;3.03;;;2.93;;
3299;SDS011;1662;49.310;8.134;2023-08-31T10:27:51;3.13;;;2.90;;
3299;SDS011;1662;49.310;8.134;2023-08-31T10:33:02;5.90;;;5.50;;
3299;SDS011;1662;49.310;8.134;2023-08-31T10:35:49;2.93;;;2.83;;
3299;SDS011;1662;49.310;8.134;2023-08-31T10:38:23;3.87;;;3.47;;
3299;SDS011;1662;49.310;8.134;2023-08-31T10:43:43;6.27;;;3.60;;
3299;SDS011;1662;49.310;8.134;2023-08-31T10:46:24;4.07;;;3.67;;
3299;SDS011;1662;49.310;8.134;2023-08-31T10:49:01;7.63;;;7.03;;
3299;SDS011;1662;49.310;8.134;2023-08-31T10:51:31;6.43;;;3.70;;
3299;SDS011;1662;49.310;8.134;2023-08-31T10:54:11;7.50;;;3.53;;
3299;SDS011;1662;49.310;8.134;2023-08-31T10:57:01;4.00;;;3.70;;
3299;SDS011;1662;49.310;8.134;2023-08-31T11:05:00;4.80;;;3.80;;
3299;SDS011;1662;49.310;8.134;2023-08-31T11:07:29;3.90;;;3.53;;
3299;SDS011;1662;49.310;8.134;2023-08-31T11:12:34;4.70;;;3.70;;
3299;SDS011;1662;49.310;8.134;2023-08-31T11:15:00;4.20;;;3.80;;
3299;SDS011;1662;49.310;8.134;2023-08-31T11:17:28;4.47;;;4.03;;
3299;SDS011;1662;49.310;8.134;2023-08-31T11:19:56;3.73;;;3.43;;
3299;SDS011;1662;49.310;8.134;2023-08-31T11:22:21;4.07;;;3.50;;
3299;SDS011;1662;49.310;8.134;2023-08-31T11:24:47;4.50;;;4.00;;
3299;SDS011;1662;49.310;8.134;2023-08-31T11:27:14;3.93;;;3.63;;
3299;SDS011;1662;49.310;8.134;2023-08-31T11:29:42;8.80;;;4.03;;
3299;SDS011;1662;49.310;8.134;2023-08-31T11:32:09;5.43;;;4.00;;
3299;SDS011;1662;49.310;8.134;2023-08-31T11:34:34;7.97;;;3.97;;
3299;SDS011;1662;49.310;8.134;2023-08-31T11:37:04;4.53;;;3.87;;
3299;SDS011;1662;49.310;8.134;2023-08-31T11:39:30;8.10;;;3.77;;
3299;SDS011;1662;49.310;8.134;2023-08-31T11:41:56;3.97;;;3.60;;
3299;SDS011;1662;49.310;8.134;2023-08-31T11:44:22;4.53;;;4.10;;
3299;SDS011;1662;49.310;8.134;2023-08-31T11:46:48;3.87;;;3.67;;
3299;SDS011;1662;49.310;8.134;2023-08-31T11:49:15;5.67;;;5.23;;
3299;SDS011;1662;49.310;8.134;2023-08-31T11:51:44;6.80;;;6.17;;
3299;SDS011;1662;49.310;8.134;2023-08-31T11:54:11;7.00;;;6.70;;
3299;SDS011;1662;49.310;8.134;2023-08-31T11:56:40;7.40;;;6.90;;
3299;SDS011;1662;49.310;8.134;2023-08-31T11:59:08;7.57;;;6.90;;
3299;SDS011;1662;49.310;8.134;2023-08-31T12:01:39;8.40;;;7.83;;
3299;SDS011;1662;49.310;8.134;2023-08-31T12:04:09;8.53;;;7.93;;
3299;SDS011;1662;49.310;8.134;2023-08-31T12:06:35;3.20;;;2.97;;
3299;SDS011;1662;49.310;8.134;2023-08-31T12:09:01;6.00;;;3.70;;
3299;SDS011;1662;49.310;8.134;2023-08-31T12:11:29;7.60;;;7.10;;
3299;SDS011;1662;49.310;8.134;2023-08-31T12:13:55;3.53;;;3.23;;
3299;SDS011;1662;49.310;8.134;2023-08-31T12:16:31;3.20;;;3.00;;
3299;SDS011;1662;49.310;8.134;2023-08-31T12:19:04;5.30;;;3.73;;
3299;SDS011;1662;49.310;8.134;2023-08-31T12:21:32;6.10;;;4.07;;
3299;SDS011;1662;49.310;8.134;2023-08-31T12:24:01;3.27;;;3.10;;
3299;SDS011;1662;49.310;8.134;2023-08-31T12:26:28;5.73;;;5.27;;
3299;SDS011;1662;49.310;8.134;2023-08-31T12:28:54;11.97;;;11.17;;
3299;SDS011;1662;49.310;8.134;2023-08-31T12:31:20;11.20;;;10.57;;
3299;SDS011;1662;49.310;8.134;2023-08-31T12:33:47;5.00;;;4.50;;
3299;SDS011;1662;49.310;8.134;2023-08-31T12:36:13;3.90;;;3.60;;
3299;SDS011;1662;49.310;8.134;2023-08-31T12:38:38;12.43;;;11.63;;
3299;SDS011;1662;49.310;8.134;2023-08-31T12:41:04;11.13;;;10.27;;
3299;SDS011;1662;49.310;8.134;2023-08-31T12:43:30;6.30;;;5.90;;
3299;SDS011;1662;49.310;8.134;2023-08-31T12:45:56;13.70;;;12.80;;
3299;SDS011;1662;49.310;8.134;2023-08-31T12:48:22;12.83;;;12.13;;
3299;SDS011;1662;49.310;8.134;2023-08-31T12:50:48;8.90;;;8.40;;
3299;SDS011;1662;49.310;8.134;2023-08-31T12:53:14;9.73;;;9.23;;
3299;SDS011;1662;49.310;8.134;2023-08-31T12:55:40;9.70;;;9.20;;
3299;SDS011;1662;49.310;8.134;2023-08-31T12:58:05;9.23;;;8.53;;
3299;SDS011;1662;49.310;8.134;2023-08-31T13:00:31;8.00;;;7.60;;
3299;SDS011;1662;49.310;8.134;2023-08-31T13:02:57;5.23;;;4.83;;
3299;SDS011;1662;49.310;8.134;2023-08-31T13:05:22;4.80;;;4.43;;
3299;SDS011;1662;49.310;8.134;2023-08-31T13:07:48;7.83;;;4.50;;
3299;SDS011;1662;49.310;8.134;2023-08-31T13:10:14;4.80;;;4.40;;
3299;SDS011;1662;49.310;8.134;2023-08-31T13:12:39;4.20;;;3.90;;
3299;SDS011;1662;49.310;8.134;2023-08-31T13:15:05;4.50;;;4.30;;
3299;SDS011;1662;49.310;8.134;2023-08-31T13:17:33;6.23;;;4.50;;
3299;SDS011;1662;49.310;8.134;2023-08-31T13:19:59;5.23;;;4.93;;
3299;SDS011;1662;49.310;8.134;2023-08-31T13:22:24;10.47;;;9.87;;
3299;SDS011;1662;49.310;8.134;2023-08-31T13:24:50;10.10;;;8.93;;
3299;SDS011;1662;49.310;8.134;2023-08-31T13:27:16;5.00;;;4.70;;
3299;SDS011;1662;49.310;8.134;2023-08-31T13:29:43;9.30;;;8.80;;
3299;SDS011;1662;49.310;8.134;2023-08-31T13:32:08;6.00;;;5.40;;
3299;SDS011;1662;49.310;8.134;2023-08-31T13:34:37;5.50;;;4.70;;
3299;SDS011;1662;49.310;8.134;2023-08-31T13:37:02;5.93;;;4.93;;
3299;SDS011;1662;49.310;8.134;2023-08-31T13:39:33;5.00;;;4.70;;
3299;SDS011;1662;49.310;8.134;2023-08-31T13:42:05;5.80;;;5.30;;
3299;SDS011;1662;49.310;8.134;2023-08-31T13:44:31;5.60;;;5.10;;
3299;SDS011;1662;49.310;8.134;2023-08-31T13:46:57;7.03;;;6.73;;
3299;SDS011;1662;49.310;8.134;2023-08-31T13:49:23;5.57;;;5.17;;
3299;SDS011;1662;49.310;8.134;2023-08-31T13:51:48;8.93;;;5.20;;
3299;SDS011;1662;49.310;8.134;2023-08-31T13:54:14;5.17;;;4.87;;
3299;SDS011;1662;49.310;8.134;2023-08-31T13:56:40;5.23;;;4.90;;
3299;SDS011;1662;49.310;8.134;2023-08-31T13:59:05;6.13;;;5.33;;
3299;SDS011;1662;49.310;8.134;2023-08-31T14:01:31;5.67;;;4.90;;
3299;SDS011;1662;49.310;8.134;2023-08-31T14:03:56;5.40;;;5.00;;
3299;SDS011;1662;49.310;8.134;2023-08-31T14:06:22;7.00;;;5.10;;
3299;SDS011;1662;49.310;8.134;2023-08-31T14:08:48;5.33;;;4.93;;
3299;SDS011;1662;49.310;8.134;2023-08-31T14:11:13;6.00;;;4.53;;
3299;SDS011;1662;49.310;8.134;2023-08-31T14:13:39;4.83;;;4.43;;
3299;SDS011;1662;49.310;8.134;2023-08-31T14:16:08;6.13;;;4.30;;
3299;SDS011;1662;49.310;8.134;2023-08-31T14:18:34;5.43;;;4.90;;
3299;SDS011;1662;49.310;8.134;2023-08-31T14:20:59;5.83;;;4.87;;
3299;SDS011;1662;49.310;8.134;2023-08-31T14:23:26;6.70;;;4.80;;
3299;SDS011;1662;49.310;8.134;2023-08-31T14:25:52;4.87;;;4.60;;
3299;SDS011;1662;49.310;8.134;2023-08-31T14:28:17;5.77;;;5.30;;
3299;SDS011;1662;49.310;8.134;2023-08-31T14:30:43;4.30;;;4.10;;
3299;SDS011;1662;49.310;8.134;2023-08-31T14:33:09;4.23;;;3.87;;
3299;SDS011;1662;49.310;8.134;2023-08-31T14:35:38;7.53;;;6.80;;
3299;SDS011;1662;49.310;8.134;2023-08-31T14:38:04;6.97;;;6.37;;
3299;SDS011;1662;49.310;8.134;2023-08-31T14:40:30;4.90;;;4.60;;
3299;SDS011;1662;49.310;8.134;2023-08-31T14:42:57;5.50;;;5.10;;
3299;SDS011;1662;49.310;8.134;2023-08-31T14:45:23;5.50;;;5.20;;
3299;SDS011;1662;49.310;8.134;2023-08-31T14:47:49;5.83;;;5.60;;
3299;SDS011;1662;49.310;8.134;2023-08-31T14:50:14;6.43;;;6.13;;
3299;SDS011;1662;49.310;8.134;2023-08-31T14:52:40;6.13;;;5.83;;
3299;SDS011;1662;49.310;8.134;2023-08-31T14:55:05;9.30;;;6.60;;
3299;SDS011;1662;49.310;8.134;2023-08-31T14:57:34;8.90;;;6.53;;
3299;SDS011;1662;49.310;8.134;2023-08-31T15:00:00;7.17;;;6.07;;
3299;SDS011;1662;49.310;8.134;2023-08-31T15:02:25;7.40;;;6.80;;
3299;SDS011;1662;49.310;8.134;2023-08-31T15:04:51;9.50;;;7.43;;
3299;SDS011;1662;49.310;8.134;2023-08-31T15:07:19;6.03;;;5.63;;
3299;SDS011;1662;49.310;8.134;2023-08-31T15:09:45;6.23;;;5.10;;
3299;SDS011;1662;49.310;8.134;2023-08-31T15:12:11;5.80;;;5.47;;
3299;SDS011;1662;49.310;8.134;2023-08-31T15:14:37;4.73;;;4.43;;
3299;SDS011;1662;49.310;8.134;2023-08-31T15:17:06;5.20;;;4.70;;
3299;SDS011;1662;49.310;8.134;2023-08-31T15:19:31;5.00;;;4.53;;
3299;SDS011;1662;49.310;8.134;2023-08-31T15:21:57;7.07;;;5.13;;
3299;SDS011;1662;49.310;8.134;2023-08-31T15:24:23;6.00;;;5.50;;
3299;SDS011;1662;49.310;8.134;2023-08-31T15:26:49;5.43;;;5.03;;
3299;SDS011;1662;49.310;8.134;2023-08-31T15:29:15;6.63;;;5.23;;
3299;SDS011;1662;49.310;8.134;2023-08-31T15:31:41;5.53;;;5.17;;
3299;SDS011;1662;49.310;8.134;2023-08-31T15:34:09;5.97;;;5.40;;
3299;SDS011;1662;49.310;8.134;2023-08-31T15:36:38;6.07;;;5.40;;